Terminal Aerodrome Forecast
Issued by NWS

Home | Current Version | Previous Version | Text Only | Print | Product List | Glossary Off
Versions: 1 2 3 4 5 6 7 8 9 10 11 12 13 14 15 16 17 18 19 20 21 22

000
FTUS45 KGGW 272300
TAFGDV
TAF
KGDV 272320Z 2800/2824 34007KT P6SM SCT140
     FM280300 VRB05KT P6SM SCT140
     FM281800 22014KT P6SM SCT110
     FM282100 27022G33KT P6SM SCT060
      AMD LTD TO VIS AND WIND=

USA.gov is the U.S. government's official web portal to all federal, state and local government web resources and services.